Terminal Aerodrome Forecast
Issued by NWS

Home | Current Version | Previous Version | Text Only | Print | Product List | Glossary On
Versions: 1 2 3 4 5 6 7 8 9 10 11 12 13 14
141
FTUS46 KMTR 201044 AAA
TAFMRY
TAF AMD
KMRY 201044Z 2011/2106 15010G15KT P6SM -RA SCT030 OVC050
     FM201300 19020G30KT 4SM RA BKN020 OVC030
      TEMPO 2013/2015 2SM +RA OVC015
     FM201500 24014G19KT 6SM SHRA OVC015
     FM202100 22013G24KT P6SM -SHRA SCT020 OVC050 PROB30 2021/2101 1
      1/2SM -TSRA BKN050CB=

USA.gov is the U.S. government's official web portal to all federal, state and local government web resources and services.